sensor_id;sensor_type;location;lat;lon;timestamp;temperature;humidity
25092;DHT22;13082;52.374;4.946;2024-01-30T00:01:49;9.70;99.90
25092;DHT22;13082;52.374;4.946;2024-01-30T00:04:15;9.70;99.90
25092;DHT22;13082;52.374;4.946;2024-01-30T00:06:42;9.70;99.90
25092;DHT22;13082;52.374;4.946;2024-01-30T00:09:08;9.70;99.90
25092;DHT22;13082;52.374;4.946;2024-01-30T00:11:34;9.70;99.90
25092;DHT22;13082;52.374;4.946;2024-01-30T00:14:00;9.70;99.90
25092;DHT22;13082;52.374;4.946;2024-01-30T00:16:26;9.70;99.90
25092;DHT22;13082;52.374;4.946;2024-01-30T00:18:52;9.70;99.90
25092;DHT22;13082;52.374;4.946;2024-01-30T00:21:18;9.70;99.90
25092;DHT22;13082;52.374;4.946;2024-01-30T00:23:44;9.70;99.90
25092;DHT22;13082;52.374;4.946;2024-01-30T00:26:10;9.70;99.90
25092;DHT22;13082;52.374;4.946;2024-01-30T00:28:40;9.70;99.90
25092;DHT22;13082;52.374;4.946;2024-01-30T00:31:06;9.70;99.90
25092;DHT22;13082;52.374;4.946;2024-01-30T00:33:31;9.60;99.90
25092;DHT22;13082;52.374;4.946;2024-01-30T00:35:57;9.70;99.90
25092;DHT22;13082;52.374;4.946;2024-01-30T00:38:22;9.70;99.90
25092;DHT22;13082;52.374;4.946;2024-01-30T00:40:48;9.70;99.90
25092;DHT22;13082;52.374;4.946;2024-01-30T00:43:15;9.70;99.90
25092;DHT22;13082;52.374;4.946;2024-01-30T00:45:41;9.70;99.90
25092;DHT22;13082;52.374;4.946;2024-01-30T00:48:06;9.70;99.90
25092;DHT22;13082;52.374;4.946;2024-01-30T00:50:32;9.70;99.90
25092;DHT22;13082;52.374;4.946;2024-01-30T00:52:58;9.70;99.90
25092;DHT22;13082;52.374;4.946;2024-01-30T00:55:23;9.70;99.90
25092;DHT22;13082;52.374;4.946;2024-01-30T00:57:49;9.70;99.90
25092;DHT22;13082;52.374;4.946;2024-01-30T01:00:15;9.70;99.90
25092;DHT22;13082;52.374;4.946;2024-01-30T01:02:42;9.70;99.90
25092;DHT22;13082;52.374;4.946;2024-01-30T01:05:08;9.70;99.90
25092;DHT22;13082;52.374;4.946;2024-01-30T01:07:34;9.70;99.90
25092;DHT22;13082;52.374;4.946;2024-01-30T01:10:00;9.70;99.90
25092;DHT22;13082;52.374;4.946;2024-01-30T01:12:25;9.80;99.90
25092;DHT22;13082;52.374;4.946;2024-01-30T01:14:51;9.70;99.90
25092;DHT22;13082;52.374;4.946;2024-01-30T01:17:17;9.70;99.90
25092;DHT22;13082;52.374;4.946;2024-01-30T01:19:44;9.80;99.90
25092;DHT22;13082;52.374;4.946;2024-01-30T01:22:09;9.70;99.90
25092;DHT22;13082;52.374;4.946;2024-01-30T01:24:35;9.70;99.90
25092;DHT22;13082;52.374;4.946;2024-01-30T01:27:01;9.70;99.90
25092;DHT22;13082;52.374;4.946;2024-01-30T01:29:27;9.70;99.90
25092;DHT22;13082;52.374;4.946;2024-01-30T01:31:57;9.70;99.90
25092;DHT22;13082;52.374;4.946;2024-01-30T01:34:23;9.70;99.90
25092;DHT22;13082;52.374;4.946;2024-01-30T01:36:49;9.70;99.90
25092;DHT22;13082;52.374;4.946;2024-01-30T01:39:16;9.60;99.90
25092;DHT22;13082;52.374;4.946;2024-01-30T01:41:42;9.60;99.90
25092;DHT22;13082;52.374;4.946;2024-01-30T01:44:08;9.50;99.90
25092;DHT22;13082;52.374;4.946;2024-01-30T01:46:34;9.50;99.90
25092;DHT22;13082;52.374;4.946;2024-01-30T01:49:04;9.40;99.90
25092;DHT22;13082;52.374;4.946;2024-01-30T01:51:31;9.50;99.90
25092;DHT22;13082;52.374;4.946;2024-01-30T01:54:01;9.50;99.90
25092;DHT22;13082;52.374;4.946;2024-01-30T01:56:28;9.50;99.90
25092;DHT22;13082;52.374;4.946;2024-01-30T01:58:54;9.50;99.90
25092;DHT22;13082;52.374;4.946;2024-01-30T02:01:21;9.50;99.90
25092;DHT22;13082;52.374;4.946;2024-01-30T02:03:47;9.50;99.90
25092;DHT22;13082;52.374;4.946;2024-01-30T02:06:13;9.50;99.90
25092;DHT22;13082;52.374;4.946;2024-01-30T02:08:40;9.50;99.90
25092;DHT22;13082;52.374;4.946;2024-01-30T02:11:06;9.50;99.90
25092;DHT22;13082;52.374;4.946;2024-01-30T02:13:31;9.60;99.90
25092;DHT22;13082;52.374;4.946;2024-01-30T02:15:57;9.60;99.90
25092;DHT22;13082;52.374;4.946;2024-01-30T02:18:22;9.60;99.90
25092;DHT22;13082;52.374;4.946;2024-01-30T02:20:48;9.60;99.90
25092;DHT22;13082;52.374;4.946;2024-01-30T02:23:15;9.60;99.90
25092;DHT22;13082;52.374;4.946;2024-01-30T02:25:42;9.60;99.90
25092;DHT22;13082;52.374;4.946;2024-01-30T02:28:13;9.60;99.90
25092;DHT22;13082;52.374;4.946;2024-01-30T02:30:47;9.60;99.90
25092;DHT22;13082;52.374;4.946;2024-01-30T02:33:13;9.60;99.90
25092;DHT22;13082;52.374;4.946;2024-01-30T02:35:39;9.60;99.90
25092;DHT22;13082;52.374;4.946;2024-01-30T02:38:05;9.60;99.90
25092;DHT22;13082;52.374;4.946;2024-01-30T02:40:31;9.60;99.90
25092;DHT22;13082;52.374;4.946;2024-01-30T02:42:58;9.70;99.90
25092;DHT22;13082;52.374;4.946;2024-01-30T02:45:24;9.60;99.90
25092;DHT22;13082;52.374;4.946;2024-01-30T02:47:49;9.70;99.90
25092;DHT22;13082;52.374;4.946;2024-01-30T02:50:15;9.70;99.90
25092;DHT22;13082;52.374;4.946;2024-01-30T02:52:41;9.70;99.90
25092;DHT22;13082;52.374;4.946;2024-01-30T02:55:09;9.70;99.90
25092;DHT22;13082;52.374;4.946;2024-01-30T02:57:35;9.70;99.90
25092;DHT22;13082;52.374;4.946;2024-01-30T03:00:00;9.70;99.90
25092;DHT22;13082;52.374;4.946;2024-01-30T03:02:26;9.70;99.90
25092;DHT22;13082;52.374;4.946;2024-01-30T03:04:52;9.70;99.90
25092;DHT22;13082;52.374;4.946;2024-01-30T03:07:17;9.70;99.90
25092;DHT22;13082;52.374;4.946;2024-01-30T03:09:43;9.60;99.90
25092;DHT22;13082;52.374;4.946;2024-01-30T03:12:09;9.60;99.90
25092;DHT22;13082;52.374;4.946;2024-01-30T03:14:35;9.60;99.90
25092;DHT22;13082;52.374;4.946;2024-01-30T03:17:00;9.50;99.90
25092;DHT22;13082;52.374;4.946;2024-01-30T03:19:26;9.60;99.90
25092;DHT22;13082;52.374;4.946;2024-01-30T03:21:52;9.60;99.90
25092;DHT22;13082;52.374;4.946;2024-01-30T03:24:17;9.60;99.90
25092;DHT22;13082;52.374;4.946;2024-01-30T03:26:43;9.70;99.90
25092;DHT22;13082;52.374;4.946;2024-01-30T03:29:09;9.70;99.90
25092;DHT22;13082;52.374;4.946;2024-01-30T03:31:34;9.70;99.90
25092;DHT22;13082;52.374;4.946;2024-01-30T03:34:01;9.80;99.90
25092;DHT22;13082;52.374;4.946;2024-01-30T03:36:26;9.80;99.90
25092;DHT22;13082;52.374;4.946;2024-01-30T03:38:52;9.80;99.90
25092;DHT22;13082;52.374;4.946;2024-01-30T03:41:18;9.80;99.90
25092;DHT22;13082;52.374;4.946;2024-01-30T03:43:43;9.80;99.90
25092;DHT22;13082;52.374;4.946;2024-01-30T03:46:11;9.80;99.90
25092;DHT22;13082;52.374;4.946;2024-01-30T03:48:37;9.80;99.90
25092;DHT22;13082;52.374;4.946;2024-01-30T03:51:03;9.80;99.90
25092;DHT22;13082;52.374;4.946;2024-01-30T03:53:29;9.80;99.90
25092;DHT22;13082;52.374;4.946;2024-01-30T03:55:55;9.80;99.90
25092;DHT22;13082;52.374;4.946;2024-01-30T03:58:20;9.80;99.90
25092;DHT22;13082;52.374;4.946;2024-01-30T04:00:47;9.80;99.90
25092;DHT22;13082;52.374;4.946;2024-01-30T04:03:14;9.80;99.90
25092;DHT22;13082;52.374;4.946;2024-01-30T04:05:40;9.70;99.90
25092;DHT22;13082;52.374;4.946;2024-01-30T04:08:07;9.70;99.90
25092;DHT22;13082;52.374;4.946;2024-01-30T04:10:33;9.70;99.90
25092;DHT22;13082;52.374;4.946;2024-01-30T04:12:58;9.70;99.90
25092;DHT22;13082;52.374;4.946;2024-01-30T04:15:25;9.70;99.90
25092;DHT22;13082;52.374;4.946;2024-01-30T04:17:50;9.70;99.90
25092;DHT22;13082;52.374;4.946;2024-01-30T04:20:16;9.60;99.90
25092;DHT22;13082;52.374;4.946;2024-01-30T04:22:46;9.60;99.90
25092;DHT22;13082;52.374;4.946;2024-01-30T04:25:14;9.70;99.90
25092;DHT22;13082;52.374;4.946;2024-01-30T04:27:40;9.70;99.90
25092;DHT22;13082;52.374;4.946;2024-01-30T04:30:06;9.70;99.90
25092;DHT22;13082;52.374;4.946;2024-01-30T04:32:32;9.80;99.90
25092;DHT22;13082;52.374;4.946;2024-01-30T04:34:58;9.70;99.90
25092;DHT22;13082;52.374;4.946;2024-01-30T04:37:24;9.70;99.90
25092;DHT22;13082;52.374;4.946;2024-01-30T04:39:50;9.70;99.90
25092;DHT22;13082;52.374;4.946;2024-01-30T04:42:17;9.70;99.90
25092;DHT22;13082;52.374;4.946;2024-01-30T04:44:42;9.80;99.90
25092;DHT22;13082;52.374;4.946;2024-01-30T04:47:08;9.70;99.90
25092;DHT22;13082;52.374;4.946;2024-01-30T04:49:36;9.70;99.90
25092;DHT22;13082;52.374;4.946;2024-01-30T04:52:02;9.70;99.90
25092;DHT22;13082;52.374;4.946;2024-01-30T04:54:27;9.70;99.90
25092;DHT22;13082;52.374;4.946;2024-01-30T04:56:53;9.70;99.90
25092;DHT22;13082;52.374;4.946;2024-01-30T04:59:19;9.70;99.90
25092;DHT22;13082;52.374;4.946;2024-01-30T05:01:44;9.70;99.90
25092;DHT22;13082;52.374;4.946;2024-01-30T05:04:10;9.70;99.90
25092;DHT22;13082;52.374;4.946;2024-01-30T05:06:36;9.70;99.90
25092;DHT22;13082;52.374;4.946;2024-01-30T05:09:02;9.70;99.90
25092;DHT22;13082;52.374;4.946;2024-01-30T05:11:30;9.60;99.90
25092;DHT22;13082;52.374;4.946;2024-01-30T05:13:55;9.60;99.90
25092;DHT22;13082;52.374;4.946;2024-01-30T05:16:21;9.60;99.90
25092;DHT22;13082;52.374;4.946;2024-01-30T05:18:46;9.70;99.90
25092;DHT22;13082;52.374;4.946;2024-01-30T05:21:12;9.70;99.90
25092;DHT22;13082;52.374;4.946;2024-01-30T05:23:38;9.60;99.90
25092;DHT22;13082;52.374;4.946;2024-01-30T05:26:03;9.70;99.90
25092;DHT22;13082;52.374;4.946;2024-01-30T05:28:29;9.70;99.90
25092;DHT22;13082;52.374;4.946;2024-01-30T05:30:56;9.70;99.90
25092;DHT22;13082;52.374;4.946;2024-01-30T05:33:22;9.60;99.90
25092;DHT22;13082;52.374;4.946;2024-01-30T05:35:47;9.60;99.90
25092;DHT22;13082;52.374;4.946;2024-01-30T05:38:14;9.60;99.90
25092;DHT22;13082;52.374;4.946;2024-01-30T05:40:40;9.60;99.90
25092;DHT22;13082;52.374;4.946;2024-01-30T05:43:06;9.60;99.90
25092;DHT22;13082;52.374;4.946;2024-01-30T05:45:31;9.70;99.90
25092;DHT22;13082;52.374;4.946;2024-01-30T05:47:57;9.70;99.90
25092;DHT22;13082;52.374;4.946;2024-01-30T05:50:22;9.60;99.90
25092;DHT22;13082;52.374;4.946;2024-01-30T05:52:48;9.70;99.90
25092;DHT22;13082;52.374;4.946;2024-01-30T05:55:14;9.70;99.90
25092;DHT22;13082;52.374;4.946;2024-01-30T05:57:40;9.60;99.90
25092;DHT22;13082;52.374;4.946;2024-01-30T06:00:06;9.60;99.90
25092;DHT22;13082;52.374;4.946;2024-01-30T06:02:32;9.60;99.90
25092;DHT22;13082;52.374;4.946;2024-01-30T06:04:58;9.50;99.90
25092;DHT22;13082;52.374;4.946;2024-01-30T06:07:24;9.50;99.90
25092;DHT22;13082;52.374;4.946;2024-01-30T06:09:49;9.50;99.90
25092;DHT22;13082;52.374;4.946;2024-01-30T06:12:15;9.60;99.90
25092;DHT22;13082;52.374;4.946;2024-01-30T06:14:41;9.50;99.90
25092;DHT22;13082;52.374;4.946;2024-01-30T06:17:08;9.60;99.90
25092;DHT22;13082;52.374;4.946;2024-01-30T06:19:34;9.60;99.90
25092;DHT22;13082;52.374;4.946;2024-01-30T06:21:59;9.60;99.90
25092;DHT22;13082;52.374;4.946;2024-01-30T06:24:25;9.60;99.90
25092;DHT22;13082;52.374;4.946;2024-01-30T06:26:51;9.60;99.90
25092;DHT22;13082;52.374;4.946;2024-01-30T06:29:16;9.60;99.90
25092;DHT22;13082;52.374;4.946;2024-01-30T06:31:42;9.60;99.90
25092;DHT22;13082;52.374;4.946;2024-01-30T06:34:09;9.60;99.90
25092;DHT22;13082;52.374;4.946;2024-01-30T06:36:35;9.70;99.90
25092;DHT22;13082;52.374;4.946;2024-01-30T06:39:02;9.70;99.90
25092;DHT22;13082;52.374;4.946;2024-01-30T06:41:27;9.70;99.90
25092;DHT22;13082;52.374;4.946;2024-01-30T06:43:53;9.70;99.90
25092;DHT22;13082;52.374;4.946;2024-01-30T06:46:18;9.70;99.90
25092;DHT22;13082;52.374;4.946;2024-01-30T06:48:44;9.70;99.90
25092;DHT22;13082;52.374;4.946;2024-01-30T06:51:11;9.70;99.90
25092;DHT22;13082;52.374;4.946;2024-01-30T06:53:36;9.70;99.90
25092;DHT22;13082;52.374;4.946;2024-01-30T06:56:02;9.80;99.90
25092;DHT22;13082;52.374;4.946;2024-01-30T06:58:28;9.80;99.90
25092;DHT22;13082;52.374;4.946;2024-01-30T07:00:54;9.80;99.90
25092;DHT22;13082;52.374;4.946;2024-01-30T07:03:20;9.80;99.90
25092;DHT22;13082;52.374;4.946;2024-01-30T07:05:46;9.80;99.90
25092;DHT22;13082;52.374;4.946;2024-01-30T07:08:11;9.80;99.90
25092;DHT22;13082;52.374;4.946;2024-01-30T07:10:37;9.80;99.90
25092;DHT22;13082;52.374;4.946;2024-01-30T07:13:02;9.80;99.90
25092;DHT22;13082;52.374;4.946;2024-01-30T07:15:30;9.80;99.90
25092;DHT22;13082;52.374;4.946;2024-01-30T07:17:56;9.80;99.90
25092;DHT22;13082;52.374;4.946;2024-01-30T07:20:21;9.80;99.90
25092;DHT22;13082;52.374;4.946;2024-01-30T07:22:47;9.80;99.90
25092;DHT22;13082;52.374;4.946;2024-01-30T07:25:13;9.70;99.90
25092;DHT22;13082;52.374;4.946;2024-01-30T07:27:39;9.80;99.90
25092;DHT22;13082;52.374;4.946;2024-01-30T07:30:05;9.80;99.90
25092;DHT22;13082;52.374;4.946;2024-01-30T07:32:31;9.80;99.90
25092;DHT22;13082;52.374;4.946;2024-01-30T07:34:57;9.80;99.90
25092;DHT22;13082;52.374;4.946;2024-01-30T07:37:22;9.90;99.90
25092;DHT22;13082;52.374;4.946;2024-01-30T07:39:48;9.90;99.90
25092;DHT22;13082;52.374;4.946;2024-01-30T07:42:14;9.90;99.90
25092;DHT22;13082;52.374;4.946;2024-01-30T07:44:39;9.90;99.90
25092;DHT22;13082;52.374;4.946;2024-01-30T07:47:05;10.00;99.90
25092;DHT22;13082;52.374;4.946;2024-01-30T07:49:31;10.00;99.90
25092;DHT22;13082;52.374;4.946;2024-01-30T07:51:56;10.00;99.90
25092;DHT22;13082;52.374;4.946;2024-01-30T07:54:22;10.00;99.90
25092;DHT22;13082;52.374;4.946;2024-01-30T07:56:48;10.00;99.90
25092;DHT22;13082;52.374;4.946;2024-01-30T07:59:14;10.00;99.90
25092;DHT22;13082;52.374;4.946;2024-01-30T08:01:40;10.00;99.90
25092;DHT22;13082;52.374;4.946;2024-01-30T08:04:05;10.10;99.90
25092;DHT22;13082;52.374;4.946;2024-01-30T08:06:31;10.10;99.90
25092;DHT22;13082;52.374;4.946;2024-01-30T08:08:57;10.10;99.90
25092;DHT22;13082;52.374;4.946;2024-01-30T08:11:24;10.10;99.90
25092;DHT22;13082;52.374;4.946;2024-01-30T08:13:55;10.10;99.90
25092;DHT22;13082;52.374;4.946;2024-01-30T08:16:20;10.20;99.90
25092;DHT22;13082;52.374;4.946;2024-01-30T08:18:46;10.20;99.90
25092;DHT22;13082;52.374;4.946;2024-01-30T08:21:12;10.20;99.90
25092;DHT22;13082;52.374;4.946;2024-01-30T08:23:40;10.30;99.90
25092;DHT22;13082;52.374;4.946;2024-01-30T08:26:06;10.30;99.90
25092;DHT22;13082;52.374;4.946;2024-01-30T08:28:32;10.30;99.90
25092;DHT22;13082;52.374;4.946;2024-01-30T08:30:57;10.30;99.90
25092;DHT22;13082;52.374;4.946;2024-01-30T08:33:23;10.30;99.90
25092;DHT22;13082;52.374;4.946;2024-01-30T08:35:49;10.30;99.90
25092;DHT22;13082;52.374;4.946;2024-01-30T08:38:14;10.30;99.90
25092;DHT22;13082;52.374;4.946;2024-01-30T08:40:40;10.40;99.90
25092;DHT22;13082;52.374;4.946;2024-01-30T08:43:05;10.40;99.90
25092;DHT22;13082;52.374;4.946;2024-01-30T08:45:31;10.40;99.90
25092;DHT22;13082;52.374;4.946;2024-01-30T08:47:57;10.40;99.90
25092;DHT22;13082;52.374;4.946;2024-01-30T08:50:22;10.50;99.90
25092;DHT22;13082;52.374;4.946;2024-01-30T08:52:48;10.50;99.90
25092;DHT22;13082;52.374;4.946;2024-01-30T08:55:13;10.50;99.90
25092;DHT22;13082;52.374;4.946;2024-01-30T08:57:39;10.60;99.90
25092;DHT22;13082;52.374;4.946;2024-01-30T09:00:05;10.60;99.90
25092;DHT22;13082;52.374;4.946;2024-01-30T09:02:33;10.60;99.90
25092;DHT22;13082;52.374;4.946;2024-01-30T09:04:59;10.60;99.90
25092;DHT22;13082;52.374;4.946;2024-01-30T09:07:24;10.70;99.90
25092;DHT22;13082;52.374;4.946;2024-01-30T09:09:50;10.70;99.90
25092;DHT22;13082;52.374;4.946;2024-01-30T09:12:15;10.80;99.90
25092;DHT22;13082;52.374;4.946;2024-01-30T09:14:41;10.80;99.90
25092;DHT22;13082;52.374;4.946;2024-01-30T09:17:07;10.90;99.90
25092;DHT22;13082;52.374;4.946;2024-01-30T09:19:33;10.90;99.90
25092;DHT22;13082;52.374;4.946;2024-01-30T09:21:59;10.90;99.90
25092;DHT22;13082;52.374;4.946;2024-01-30T09:24:26;11.00;99.90
25092;DHT22;13082;52.374;4.946;2024-01-30T09:26:52;11.00;99.90
25092;DHT22;13082;52.374;4.946;2024-01-30T09:29:17;11.10;99.90
25092;DHT22;13082;52.374;4.946;2024-01-30T09:31:44;11.10;99.90
25092;DHT22;13082;52.374;4.946;2024-01-30T09:34:10;11.10;99.90
25092;DHT22;13082;52.374;4.946;2024-01-30T09:36:36;11.10;99.90
25092;DHT22;13082;52.374;4.946;2024-01-30T09:39:01;11.20;99.90
25092;DHT22;13082;52.374;4.946;2024-01-30T09:41:27;11.20;99.90
25092;DHT22;13082;52.374;4.946;2024-01-30T09:43:54;11.20;99.90
25092;DHT22;13082;52.374;4.946;2024-01-30T09:46:26;11.30;99.90
25092;DHT22;13082;52.374;4.946;2024-01-30T09:48:55;11.30;99.90
25092;DHT22;13082;52.374;4.946;2024-01-30T09:51:21;11.30;99.90
25092;DHT22;13082;52.374;4.946;2024-01-30T09:53:48;11.20;99.90
25092;DHT22;13082;52.374;4.946;2024-01-30T09:56:14;11.20;99.90
25092;DHT22;13082;52.374;4.946;2024-01-30T09:58:40;11.20;99.90
25092;DHT22;13082;52.374;4.946;2024-01-30T10:01:07;11.30;99.90
25092;DHT22;13082;52.374;4.946;2024-01-30T10:03:33;11.30;99.90
25092;DHT22;13082;52.374;4.946;2024-01-30T10:05:59;11.30;99.90
25092;DHT22;13082;52.374;4.946;2024-01-30T10:08:26;11.20;99.90
25092;DHT22;13082;52.374;4.946;2024-01-30T10:10:52;11.10;99.90
25092;DHT22;13082;52.374;4.946;2024-01-30T10:13:17;11.10;99.90
25092;DHT22;13082;52.374;4.946;2024-01-30T10:15:43;11.00;99.90
25092;DHT22;13082;52.374;4.946;2024-01-30T10:18:10;10.90;99.90
25092;DHT22;13082;52.374;4.946;2024-01-30T10:20:36;10.90;99.90
25092;DHT22;13082;52.374;4.946;2024-01-30T10:23:02;10.80;99.90
25092;DHT22;13082;52.374;4.946;2024-01-30T10:25:30;10.80;99.90
25092;DHT22;13082;52.374;4.946;2024-01-30T10:27:56;10.70;99.90
25092;DHT22;13082;52.374;4.946;2024-01-30T10:30:25;10.70;99.90
25092;DHT22;13082;52.374;4.946;2024-01-30T10:32:50;10.60;99.90
25092;DHT22;13082;52.374;4.946;2024-01-30T10:35:17;10.60;99.90
25092;DHT22;13082;52.374;4.946;2024-01-30T10:37:48;10.50;99.90
25092;DHT22;13082;52.374;4.946;2024-01-30T10:40:14;10.50;99.90
25092;DHT22;13082;52.374;4.946;2024-01-30T10:42:43;10.40;99.90
25092;DHT22;13082;52.374;4.946;2024-01-30T10:45:13;10.50;99.90
25092;DHT22;13082;52.374;4.946;2024-01-30T10:47:50;10.50;99.90
25092;DHT22;13082;52.374;4.946;2024-01-30T10:50:16;10.50;99.90
25092;DHT22;13082;52.374;4.946;2024-01-30T10:52:42;10.40;99.90
25092;DHT22;13082;52.374;4.946;2024-01-30T10:55:09;10.30;99.90
25092;DHT22;13082;52.374;4.946;2024-01-30T10:57:36;10.20;99.90
25092;DHT22;13082;52.374;4.946;2024-01-30T11:00:04;10.20;99.90
25092;DHT22;13082;52.374;4.946;2024-01-30T11:02:32;10.20;99.90
25092;DHT22;13082;52.374;4.946;2024-01-30T11:04:58;10.20;99.90
25092;DHT22;13082;52.374;4.946;2024-01-30T11:07:29;10.20;99.90
25092;DHT22;13082;52.374;4.946;2024-01-30T11:12:27;10.20;99.90
25092;DHT22;13082;52.374;4.946;2024-01-30T11:15:12;10.20;99.90
25092;DHT22;13082;52.374;4.946;2024-01-30T11:17:44;10.20;99.90
25092;DHT22;13082;52.374;4.946;2024-01-30T11:20:30;10.20;99.90
25092;DHT22;13082;52.374;4.946;2024-01-30T11:23:01;10.20;99.90
25092;DHT22;13082;52.374;4.946;2024-01-30T11:25:32;10.20;99.90
25092;DHT22;13082;52.374;4.946;2024-01-30T11:27:58;10.20;99.90
25092;DHT22;13082;52.374;4.946;2024-01-30T11:30:33;10.10;99.90
25092;DHT22;13082;52.374;4.946;2024-01-30T11:33:02;10.00;99.90
25092;DHT22;13082;52.374;4.946;2024-01-30T11:35:34;9.90;99.90
25092;DHT22;13082;52.374;4.946;2024-01-30T11:38:00;9.80;99.90
25092;DHT22;13082;52.374;4.946;2024-01-30T11:40:30;9.80;99.90
25092;DHT22;13082;52.374;4.946;2024-01-30T11:42:58;9.70;99.90
25092;DHT22;13082;52.374;4.946;2024-01-30T11:45:24;9.70;99.90
25092;DHT22;13082;52.374;4.946;2024-01-30T11:47:50;9.60;99.90
25092;DHT22;13082;52.374;4.946;2024-01-30T11:50:16;9.60;99.90
25092;DHT22;13082;52.374;4.946;2024-01-30T11:52:42;9.70;99.90
25092;DHT22;13082;52.374;4.946;2024-01-30T11:55:09;9.70;99.90
25092;DHT22;13082;52.374;4.946;2024-01-30T11:57:35;9.70;99.90
25092;DHT22;13082;52.374;4.946;2024-01-30T12:00:03;9.70;99.90
25092;DHT22;13082;52.374;4.946;2024-01-30T12:02:41;9.70;99.90
25092;DHT22;13082;52.374;4.946;2024-01-30T12:05:07;9.70;99.90
25092;DHT22;13082;52.374;4.946;2024-01-30T12:07:33;9.70;99.90
25092;DHT22;13082;52.374;4.946;2024-01-30T12:09:59;9.70;99.90
25092;DHT22;13082;52.374;4.946;2024-01-30T12:12:26;9.70;99.90
25092;DHT22;13082;52.374;4.946;2024-01-30T12:14:52;9.70;99.90
25092;DHT22;13082;52.374;4.946;2024-01-30T12:17:44;9.70;99.90
25092;DHT22;13082;52.374;4.946;2024-01-30T12:20:15;9.70;99.90
25092;DHT22;13082;52.374;4.946;2024-01-30T12:22:48;9.70;99.90
25092;DHT22;13082;52.374;4.946;2024-01-30T12:25:15;9.70;99.90
25092;DHT22;13082;52.374;4.946;2024-01-30T12:27:46;9.70;99.90
25092;DHT22;13082;52.374;4.946;2024-01-30T12:30:15;9.70;99.90
25092;DHT22;13082;52.374;4.946;2024-01-30T12:32:43;9.70;99.90
25092;DHT22;13082;52.374;4.946;2024-01-30T12:35:13;9.60;99.90
25092;DHT22;13082;52.374;4.946;2024-01-30T12:37:39;9.60;99.90
25092;DHT22;13082;52.374;4.946;2024-01-30T12:40:07;9.60;99.90
25092;DHT22;13082;52.374;4.946;2024-01-30T12:42:33;9.60;99.90
25092;DHT22;13082;52.374;4.946;2024-01-30T12:44:58;9.60;99.90
25092;DHT22;13082;52.374;4.946;2024-01-30T12:47:24;9.60;99.90
25092;DHT22;13082;52.374;4.946;2024-01-30T12:49:50;9.60;99.90
25092;DHT22;13082;52.374;4.946;2024-01-30T12:52:20;9.50;99.90
25092;DHT22;13082;52.374;4.946;2024-01-30T12:54:47;9.60;99.90
25092;DHT22;13082;52.374;4.946;2024-01-30T12:57:13;9.60;99.90
25092;DHT22;13082;52.374;4.946;2024-01-30T12:59:38;9.60;99.90
25092;DHT22;13082;52.374;4.946;2024-01-30T13:02:05;9.60;99.90
25092;DHT22;13082;52.374;4.946;2024-01-30T13:04:31;9.60;99.90
25092;DHT22;13082;52.374;4.946;2024-01-30T13:06:56;9.60;99.90
25092;DHT22;13082;52.374;4.946;2024-01-30T13:09:24;9.70;99.90
25092;DHT22;13082;52.374;4.946;2024-01-30T13:11:50;9.60;99.90
25092;DHT22;13082;52.374;4.946;2024-01-30T13:14:17;9.70;99.90
25092;DHT22;13082;52.374;4.946;2024-01-30T13:16:43;9.60;99.90
25092;DHT22;13082;52.374;4.946;2024-01-30T13:19:08;9.60;99.90
25092;DHT22;13082;52.374;4.946;2024-01-30T13:21:34;9.60;99.90
25092;DHT22;13082;52.374;4.946;2024-01-30T13:23:59;9.60;99.90
25092;DHT22;13082;52.374;4.946;2024-01-30T13:26:25;9.60;99.90
25092;DHT22;13082;52.374;4.946;2024-01-30T13:28:51;9.60;99.90
25092;DHT22;13082;52.374;4.946;2024-01-30T13:31:17;9.60;99.90
25092;DHT22;13082;52.374;4.946;2024-01-30T13:33:43;9.60;99.90
25092;DHT22;13082;52.374;4.946;2024-01-30T13:36:10;9.60;99.90
25092;DHT22;13082;52.374;4.946;2024-01-30T13:38:36;9.60;99.90
25092;DHT22;13082;52.374;4.946;2024-01-30T13:41:02;9.60;99.90
25092;DHT22;13082;52.374;4.946;2024-01-30T13:43:28;9.50;99.90
25092;DHT22;13082;52.374;4.946;2024-01-30T13:45:54;9.50;99.90
25092;DHT22;13082;52.374;4.946;2024-01-30T13:48:20;9.50;99.90
25092;DHT22;13082;52.374;4.946;2024-01-30T13:50:46;9.50;99.90
25092;DHT22;13082;52.374;4.946;2024-01-30T13:53:11;9.50;99.90
25092;DHT22;13082;52.374;4.946;2024-01-30T13:55:37;9.50;99.90
25092;DHT22;13082;52.374;4.946;2024-01-30T13:58:05;9.40;99.90
25092;DHT22;13082;52.374;4.946;2024-01-30T14:00:31;9.40;99.90
25092;DHT22;13082;52.374;4.946;2024-01-30T14:02:56;9.40;99.90
25092;DHT22;13082;52.374;4.946;2024-01-30T14:05:24;9.40;99.90
25092;DHT22;13082;52.374;4.946;2024-01-30T14:07:50;9.40;99.90
25092;DHT22;13082;52.374;4.946;2024-01-30T14:10:16;9.40;99.90
25092;DHT22;13082;52.374;4.946;2024-01-30T14:12:43;9.40;99.90
25092;DHT22;13082;52.374;4.946;2024-01-30T14:15:09;9.40;99.90
25092;DHT22;13082;52.374;4.946;2024-01-30T14:17:36;9.40;99.90
25092;DHT22;13082;52.374;4.946;2024-01-30T14:20:03;9.40;99.90
25092;DHT22;13082;52.374;4.946;2024-01-30T14:22:30;9.50;99.90
25092;DHT22;13082;52.374;4.946;2024-01-30T14:24:55;9.50;99.90
25092;DHT22;13082;52.374;4.946;2024-01-30T14:27:22;9.50;99.90
25092;DHT22;13082;52.374;4.946;2024-01-30T14:29:47;9.50;99.90
25092;DHT22;13082;52.374;4.946;2024-01-30T14:32:13;9.50;99.90
25092;DHT22;13082;52.374;4.946;2024-01-30T14:34:39;9.50;99.90
25092;DHT22;13082;52.374;4.946;2024-01-30T14:37:05;9.50;99.90
25092;DHT22;13082;52.374;4.946;2024-01-30T14:39:30;9.40;99.90
25092;DHT22;13082;52.374;4.946;2024-01-30T14:41:56;9.50;99.90
25092;DHT22;13082;52.374;4.946;2024-01-30T14:44:21;9.50;99.90
25092;DHT22;13082;52.374;4.946;2024-01-30T14:46:48;9.50;99.90
25092;DHT22;13082;52.374;4.946;2024-01-30T14:49:14;9.50;99.90
25092;DHT22;13082;52.374;4.946;2024-01-30T14:51:41;9.60;99.90
25092;DHT22;13082;52.374;4.946;2024-01-30T14:54:07;9.50;99.90
25092;DHT22;13082;52.374;4.946;2024-01-30T14:56:32;9.50;99.90
25092;DHT22;13082;52.374;4.946;2024-01-30T14:58:58;9.40;99.90
25092;DHT22;13082;52.374;4.946;2024-01-30T15:01:24;9.50;99.90
25092;DHT22;13082;52.374;4.946;2024-01-30T15:03:50;9.50;99.90
25092;DHT22;13082;52.374;4.946;2024-01-30T15:06:17;9.40;99.90
25092;DHT22;13082;52.374;4.946;2024-01-30T15:08:43;9.40;99.90
25092;DHT22;13082;52.374;4.946;2024-01-30T15:11:09;9.40;99.90
25092;DHT22;13082;52.374;4.946;2024-01-30T15:13:35;9.40;99.90
25092;DHT22;13082;52.374;4.946;2024-01-30T15:16:02;9.40;99.90
25092;DHT22;13082;52.374;4.946;2024-01-30T15:18:30;9.40;99.90
25092;DHT22;13082;52.374;4.946;2024-01-30T15:20:56;9.40;99.90
25092;DHT22;13082;52.374;4.946;2024-01-30T15:23:22;9.40;99.90
25092;DHT22;13082;52.374;4.946;2024-01-30T15:25:47;9.30;99.90
25092;DHT22;13082;52.374;4.946;2024-01-30T15:28:13;9.30;99.90
25092;DHT22;13082;52.374;4.946;2024-01-30T15:30:40;9.10;99.90
25092;DHT22;13082;52.374;4.946;2024-01-30T15:33:09;9.10;99.90
25092;DHT22;13082;52.374;4.946;2024-01-30T15:35:35;9.10;99.90
25092;DHT22;13082;52.374;4.946;2024-01-30T15:38:01;9.20;99.90
25092;DHT22;13082;52.374;4.946;2024-01-30T15:40:26;9.20;99.90